createdAt,value
2023-04-12T00:02:22.226Z,10.28
2023-04-12T00:04:55.357Z,10.30
2023-04-12T00:07:24.525Z,10.30
2023-04-12T00:09:51.776Z,10.31
2023-04-12T00:12:19.206Z,10.31
2023-04-12T00:14:46.846Z,10.28
2023-04-12T00:17:13.912Z,10.27
2023-04-12T00:19:41.775Z,10.24
2023-04-12T00:22:09.661Z,10.21
2023-04-12T00:24:40.827Z,10.17
2023-04-12T00:27:08.556Z,10.17
2023-04-12T00:29:36.390Z,10.17
2023-04-12T00:32:05.414Z,10.18
2023-04-12T00:34:32.449Z,10.18
2023-04-12T00:37:01.184Z,10.16
2023-04-12T00:39:28.418Z,10.15
2023-04-12T00:41:57.615Z,10.14
2023-04-12T00:44:24.720Z,10.12
2023-04-12T00:46:51.883Z,10.08
2023-04-12T00:49:18.950Z,10.05
2023-04-12T00:51:46.090Z,10.00
2023-04-12T00:54:14.636Z,9.98
2023-04-12T00:56:41.767Z,9.95
2023-04-12T00:59:08.910Z,9.90
2023-04-12T01:01:38.148Z,9.86
2023-04-12T01:04:05.576Z,9.81
2023-04-12T01:07:03.430Z,9.77
2023-04-12T01:09:59.468Z,9.72
2023-04-12T01:13:30.255Z,9.68
2023-04-12T01:16:17.356Z,9.65
2023-04-12T01:18:50.477Z,9.63
2023-04-12T01:21:45.140Z,9.56
2023-04-12T01:24:46.755Z,9.52
2023-04-12T01:27:40.007Z,9.48
2023-04-12T01:30:08.444Z,9.45
2023-04-12T01:32:38.310Z,9.41
2023-04-12T01:35:08.744Z,9.40
2023-04-12T01:37:36.811Z,9.36
2023-04-12T01:40:09.042Z,9.36
2023-04-12T01:42:36.069Z,9.32
2023-04-12T01:45:03.951Z,9.26
2023-04-12T01:47:31.147Z,9.23
2023-04-12T01:50:23.657Z,9.15
2023-04-12T01:53:13.305Z,9.07
2023-04-12T01:55:45.692Z,9.06
2023-04-12T01:58:14.760Z,9.04
2023-04-12T02:00:44.343Z,9.01
2023-04-12T02:03:12.776Z,9.01
2023-04-12T02:05:40.261Z,8.96
2023-04-12T02:08:07.443Z,8.92
2023-04-12T02:10:36.580Z,8.88
2023-04-12T02:13:04.170Z,8.85
2023-04-12T02:15:31.902Z,8.81
2023-04-12T02:18:00.358Z,8.78
2023-04-12T02:20:28.185Z,8.75
2023-04-12T02:22:55.281Z,8.70
2023-04-12T02:25:22.319Z,8.68
2023-04-12T02:27:49.257Z,8.63
2023-04-12T02:30:16.436Z,8.61
2023-04-12T02:32:47.191Z,8.61
2023-04-12T02:35:22.659Z,8.58
2023-04-12T02:37:54.843Z,8.56
2023-04-12T02:40:24.000Z,8.54
2023-04-12T02:42:51.382Z,8.51
2023-04-12T02:45:18.483Z,8.49
2023-04-12T02:47:45.780Z,8.48
2023-04-12T02:50:13.212Z,8.45
2023-04-12T02:52:52.294Z,8.42
2023-04-12T02:55:19.421Z,8.40
2023-04-12T02:57:47.569Z,8.40
2023-04-12T03:00:16.696Z,8.38
2023-04-12T03:02:52.415Z,8.36
2023-04-12T03:05:24.140Z,8.32
2023-04-12T03:07:51.839Z,8.31
2023-04-12T03:10:23.662Z,8.28
2023-04-12T03:12:59.696Z,8.26
2023-04-12T03:15:33.700Z,8.25
2023-04-12T03:18:01.496Z,8.23
2023-04-12T03:20:33.450Z,8.20
2023-04-12T03:23:06.976Z,8.18
2023-04-12T03:25:40.850Z,8.14
2023-04-12T03:28:29.108Z,8.11
2023-04-12T03:30:57.300Z,8.09
2023-04-12T03:33:30.031Z,8.08
2023-04-12T03:36:02.477Z,8.06
2023-04-12T03:38:31.505Z,8.05
2023-04-12T03:40:59.365Z,8.07
2023-04-12T03:43:37.253Z,8.04
2023-04-12T03:46:09.292Z,8.03
2023-04-12T03:48:37.723Z,8.02
2023-04-12T03:51:08.257Z,8.01
2023-04-12T03:53:39.292Z,7.99
2023-04-12T03:56:08.229Z,7.98
2023-04-12T03:58:35.989Z,7.99
2023-04-12T04:01:07.296Z,7.99
2023-04-12T04:03:36.778Z,7.99
2023-04-12T04:06:17.344Z,7.96
2023-04-12T04:08:44.932Z,7.94
2023-04-12T04:11:13.749Z,7.93
2023-04-12T04:13:46.470Z,7.94
2023-04-12T04:16:18.232Z,7.93
2023-04-12T04:18:45.822Z,7.92
2023-04-12T04:21:15.254Z,7.93
2023-04-12T04:23:44.874Z,7.91
2023-04-12T04:26:12.429Z,7.90
2023-04-12T04:28:46.672Z,7.87
2023-04-12T04:31:18.076Z,7.87
2023-04-12T04:33:49.386Z,7.87
2023-04-12T04:36:16.604Z,7.86
2023-04-12T04:38:49.383Z,7.89
2023-04-12T04:41:27.179Z,7.86
2023-04-12T04:44:00.462Z,7.84
2023-04-12T04:46:32.049Z,7.83
2023-04-12T04:49:00.000Z,7.84
2023-04-12T04:51:27.541Z,7.84
2023-04-12T04:53:56.791Z,7.86
2023-04-12T04:56:25.082Z,7.87
2023-04-12T04:58:56.158Z,7.87
2023-04-12T05:01:28.246Z,7.86
2023-04-12T05:03:57.091Z,7.85
2023-04-12T05:06:27.217Z,7.84
2023-04-12T05:08:54.412Z,7.84
2023-04-12T05:11:22.655Z,7.84
2023-04-12T05:13:51.305Z,7.84
2023-04-12T05:16:18.421Z,7.86
2023-04-12T05:18:45.982Z,7.85
2023-04-12T05:21:13.151Z,7.86
2023-04-12T05:23:46.844Z,7.87
2023-04-12T05:26:14.128Z,7.86
2023-04-12T05:28:45.251Z,7.85
2023-04-12T05:31:13.061Z,7.87
2023-04-12T05:33:40.157Z,7.85
2023-04-12T05:36:07.668Z,7.87
2023-04-12T05:38:34.997Z,7.90
2023-04-12T05:41:05.929Z,7.90
2023-04-12T05:43:34.152Z,7.91
2023-04-12T05:46:02.108Z,7.93
2023-04-12T05:48:29.398Z,7.92
2023-04-12T05:50:58.073Z,7.92
2023-04-12T05:53:25.021Z,7.94
2023-04-12T05:55:54.189Z,7.95
2023-04-12T05:58:21.796Z,7.97
2023-04-12T06:00:54.204Z,7.98
2023-04-12T06:03:25.575Z,7.97
2023-04-12T06:05:56.274Z,7.99
2023-04-12T06:08:24.439Z,8.01
2023-04-12T06:10:51.435Z,8.00
2023-04-12T06:13:18.636Z,8.02
2023-04-12T06:15:46.010Z,8.02
2023-04-12T06:18:13.365Z,8.03
2023-04-12T06:20:40.787Z,8.04
2023-04-12T06:23:08.257Z,8.04
2023-04-12T06:25:35.977Z,8.05
2023-04-12T06:28:04.821Z,8.07
2023-04-12T06:30:35.429Z,8.09
2023-04-12T06:33:02.467Z,8.10
2023-04-12T06:35:29.633Z,8.11
2023-04-12T06:37:56.647Z,8.10
2023-04-12T06:40:23.810Z,8.13
2023-04-12T06:42:50.738Z,8.14
2023-04-12T06:45:22.827Z,8.16
2023-04-12T06:47:49.828Z,8.18
2023-04-12T06:50:18.383Z,8.19
2023-04-12T06:52:45.551Z,8.20
2023-04-12T06:55:12.493Z,8.20
2023-04-12T06:57:41.474Z,8.21
2023-04-12T07:00:09.293Z,8.24
2023-04-12T07:02:36.398Z,8.25
2023-04-12T07:05:03.448Z,8.27
2023-04-12T07:07:30.517Z,8.28
2023-04-12T07:09:57.498Z,8.29
2023-04-12T07:12:24.460Z,8.32
2023-04-12T07:14:51.373Z,8.37
2023-04-12T07:17:18.415Z,8.35
2023-04-12T07:19:45.751Z,8.37
2023-04-12T07:22:14.135Z,8.41
2023-04-12T07:24:41.255Z,8.45
2023-04-12T07:27:08.177Z,8.49
2023-04-12T07:29:35.180Z,8.50
2023-04-12T07:32:04.522Z,8.52
2023-04-12T07:34:31.757Z,8.55
2023-04-12T07:37:00.870Z,8.57
2023-04-12T07:39:29.657Z,8.59
2023-04-12T07:41:57.000Z,8.60
2023-04-12T07:44:24.002Z,8.63
2023-04-12T07:46:51.094Z,8.65
2023-04-12T07:49:18.100Z,8.66
2023-04-12T07:51:45.081Z,8.69
2023-04-12T07:54:13.150Z,8.70
2023-04-12T07:56:40.219Z,8.76
2023-04-12T07:59:07.551Z,8.74
2023-04-12T08:01:34.542Z,8.80
2023-04-12T08:04:02.141Z,8.80
2023-04-12T08:06:32.394Z,8.86
2023-04-12T08:09:00.978Z,8.87
2023-04-12T08:11:27.929Z,8.89
2023-04-12T08:13:54.967Z,8.87
2023-04-12T08:16:22.128Z,8.92
2023-04-12T08:18:49.097Z,8.96
2023-04-12T08:21:16.076Z,8.95
2023-04-12T08:23:43.027Z,9.01
2023-04-12T08:26:10.317Z,9.03
2023-04-12T08:28:39.524Z,9.03
2023-04-12T08:31:07.455Z,9.05
2023-04-12T08:33:34.555Z,9.05
2023-04-12T08:36:01.923Z,9.11
2023-04-12T08:38:44.248Z,9.17
2023-04-12T08:41:13.491Z,9.25
2023-04-12T08:43:50.850Z,9.30
2023-04-12T08:46:18.183Z,9.43
2023-04-12T08:48:48.613Z,9.49
2023-04-12T08:51:18.810Z,9.61
2023-04-12T08:53:45.883Z,9.66
2023-04-12T08:56:14.143Z,9.71
2023-04-12T08:58:51.045Z,9.76
2023-04-12T09:01:20.671Z,9.78
2023-04-12T09:03:48.038Z,9.82
2023-04-12T09:06:15.595Z,9.86
2023-04-12T09:08:57.133Z,9.89
2023-04-12T09:11:27.572Z,9.90
2023-04-12T09:13:56.734Z,9.96
2023-04-12T09:16:42.388Z,9.97
2023-04-12T09:19:09.789Z,9.96
2023-04-12T09:21:37.386Z,10.02
2023-04-12T09:24:13.987Z,10.05
2023-04-12T09:26:41.705Z,10.04
2023-04-12T09:29:26.798Z,10.08
2023-04-12T09:32:11.999Z,10.13
2023-04-12T09:34:39.520Z,10.14
2023-04-12T09:37:15.899Z,10.17
2023-04-12T09:39:43.529Z,10.19
2023-04-12T09:42:25.676Z,10.19
2023-04-12T09:45:01.556Z,10.19
2023-04-12T09:47:40.186Z,10.26
2023-04-12T09:50:09.669Z,10.28
2023-04-12T09:52:38.921Z,10.34
2023-04-12T09:55:12.955Z,10.35
2023-04-12T09:57:45.242Z,10.41
2023-04-12T10:00:17.734Z,10.42
2023-04-12T10:02:49.025Z,10.43
2023-04-12T10:05:20.782Z,10.45
2023-04-12T10:07:48.235Z,10.54
2023-04-12T10:10:18.463Z,10.56
2023-04-12T10:12:48.963Z,10.59
2023-04-12T10:15:21.162Z,10.60
2023-04-12T10:17:55.261Z,10.65
2023-04-12T10:20:26.095Z,10.68
2023-04-12T10:22:54.478Z,10.74
2023-04-12T10:25:27.281Z,10.78
2023-04-12T10:27:54.268Z,10.81
2023-04-12T10:30:30.724Z,10.85
2023-04-12T10:33:03.653Z,10.87
2023-04-12T10:35:50.672Z,10.91
2023-04-12T10:38:18.047Z,10.95
2023-04-12T10:41:17.884Z,10.99
2023-04-12T10:43:49.839Z,11.02
2023-04-12T10:46:45.857Z,11.06
2023-04-12T10:49:17.096Z,11.11
2023-04-12T10:52:09.206Z,11.15
2023-04-12T10:54:36.569Z,11.22
2023-04-12T10:57:05.531Z,11.21
2023-04-12T10:59:59.483Z,11.25
2023-04-12T11:02:26.805Z,11.29
2023-04-12T11:05:09.816Z,11.33
2023-04-12T11:07:54.404Z,11.37
2023-04-12T11:10:39.920Z,11.42
2023-04-12T11:13:09.716Z,11.46
2023-04-12T11:15:39.943Z,11.51
2023-04-12T11:18:12.385Z,11.55
2023-04-12T11:20:40.779Z,11.62
2023-04-12T11:23:10.641Z,11.67
2023-04-12T11:25:38.598Z,11.71
2023-04-12T11:28:14.095Z,11.77
2023-04-12T11:30:58.106Z,11.80
2023-04-12T11:33:51.368Z,11.85
2023-04-12T11:36:18.425Z,11.86
2023-04-12T11:38:47.527Z,11.86
2023-04-12T11:41:15.059Z,11.86
2023-04-12T11:43:42.580Z,11.86
2023-04-12T11:46:09.860Z,11.90
2023-04-12T11:48:38.782Z,11.91
2023-04-12T11:51:25.220Z,11.93
2023-04-12T11:53:54.120Z,11.95
2023-04-12T11:56:21.570Z,11.99
2023-04-12T11:58:48.856Z,12.00
2023-04-12T12:01:17.119Z,12.00
2023-04-12T12:03:44.962Z,12.04
2023-04-12T12:06:12.946Z,12.09
2023-04-12T12:08:40.428Z,12.14
2023-04-12T12:11:08.861Z,12.20
2023-04-12T12:13:59.234Z,12.26
2023-04-12T12:16:29.188Z,12.30
2023-04-12T12:18:57.195Z,12.36
2023-04-12T12:21:26.199Z,12.44
2023-04-12T12:23:53.245Z,12.51
2023-04-12T12:26:30.373Z,12.62
2023-04-12T12:29:00.338Z,12.74
2023-04-12T12:31:28.327Z,12.82
2023-04-12T12:34:01.000Z,12.93
2023-04-12T12:36:33.822Z,12.96
2023-04-12T12:39:10.412Z,12.98
2023-04-12T12:41:38.910Z,12.99
2023-04-12T12:44:07.780Z,13.00
2023-04-12T12:49:04.748Z,12.97
2023-04-12T12:51:31.952Z,12.97
2023-04-12T12:53:59.046Z,12.93
2023-04-12T12:56:26.542Z,12.91
2023-04-12T12:58:53.499Z,12.88
2023-04-12T13:01:20.672Z,12.84
2023-04-12T13:03:47.861Z,12.82
2023-04-12T13:06:14.957Z,12.80
2023-04-12T13:08:41.893Z,12.79
2023-04-12T13:11:08.912Z,12.81
2023-04-12T13:13:36.452Z,12.83
2023-04-12T13:16:03.804Z,12.85
2023-04-12T13:18:31.292Z,12.88
2023-04-12T13:20:58.438Z,12.91
2023-04-12T13:23:25.624Z,12.95
2023-04-12T13:25:53.042Z,13.00
2023-04-12T13:28:20.686Z,13.03
2023-04-12T13:30:48.637Z,13.09
2023-04-12T13:33:20.112Z,13.09
2023-04-12T13:35:48.850Z,13.06
2023-04-12T13:38:15.853Z,13.00
2023-04-12T13:40:42.910Z,12.95
2023-04-12T13:43:09.850Z,12.87
2023-04-12T13:45:37.120Z,12.79
2023-04-12T13:48:04.209Z,12.73
2023-04-12T13:50:31.172Z,12.66
2023-04-12T13:52:58.183Z,12.55
2023-04-12T13:55:25.304Z,12.43
2023-04-12T13:57:52.282Z,12.34
2023-04-12T14:00:20.059Z,12.24
2023-04-12T14:02:47.150Z,12.13
2023-04-12T14:05:14.161Z,12.06
2023-04-12T14:07:41.098Z,12.02
2023-04-12T14:10:10.149Z,11.97
2023-04-12T14:12:37.147Z,11.96
2023-04-12T14:15:05.783Z,11.94
2023-04-12T14:17:33.113Z,11.92
2023-04-12T14:20:00.479Z,11.89
2023-04-12T14:22:27.945Z,11.88
2023-04-12T14:24:55.134Z,11.80
2023-04-12T14:27:22.324Z,11.68
2023-04-12T14:29:49.442Z,11.59
2023-04-12T14:32:16.549Z,11.47
2023-04-12T14:39:40.132Z,11.14
2023-04-12T14:42:07.533Z,11.04
2023-04-12T14:44:34.545Z,10.97
2023-04-12T14:47:01.504Z,10.86
2023-04-12T14:49:31.658Z,10.78
2023-04-12T14:52:00.348Z,10.70
2023-04-12T14:54:27.360Z,10.61
2023-04-12T14:56:56.132Z,10.56
2023-04-12T14:59:23.630Z,10.49
2023-04-12T15:01:52.419Z,10.44
2023-04-12T15:04:20.214Z,10.40
2023-04-12T15:06:47.368Z,10.37
2023-04-12T15:09:17.432Z,10.33
2023-04-12T15:11:46.173Z,10.31
2023-04-12T15:14:18.033Z,10.28
2023-04-12T15:16:46.598Z,10.27
2023-04-12T15:19:20.268Z,10.28
2023-04-12T15:21:51.080Z,10.27
2023-04-12T15:24:27.152Z,10.27
2023-04-12T15:26:54.194Z,10.26
2023-04-12T15:29:22.761Z,10.27
2023-04-12T15:31:50.981Z,10.27
2023-04-12T15:34:18.242Z,10.28
2023-04-12T15:36:45.846Z,10.28
2023-04-12T15:39:14.651Z,10.29
2023-04-12T15:41:42.701Z,10.26
2023-04-12T15:44:14.137Z,10.25
2023-04-12T15:46:56.042Z,10.25
2023-04-12T15:49:27.186Z,10.24
2023-04-12T15:51:56.927Z,10.25
2023-04-12T15:54:24.234Z,10.24
2023-04-12T15:56:51.200Z,10.27
2023-04-12T15:59:18.778Z,10.32
2023-04-12T16:01:47.213Z,10.40
2023-04-12T16:04:16.138Z,10.49
2023-04-12T16:06:43.186Z,10.57
2023-04-12T16:09:12.029Z,10.63
2023-04-12T16:11:38.968Z,10.67
2023-04-12T16:14:05.969Z,10.69
2023-04-12T16:16:33.491Z,10.72
2023-04-12T16:19:01.079Z,10.79
2023-04-12T16:21:30.178Z,10.90
2023-04-12T16:23:57.167Z,11.02
2023-04-12T16:26:24.201Z,11.15
2023-04-12T16:28:53.148Z,11.31
2023-04-12T16:31:21.190Z,11.49
2023-04-12T16:33:51.718Z,11.64
2023-04-12T16:36:23.348Z,11.73
2023-04-12T16:38:59.175Z,11.83
2023-04-12T16:41:26.447Z,11.88
2023-04-12T16:43:54.996Z,11.94
2023-04-12T16:46:22.207Z,11.94
2023-04-12T16:48:49.562Z,11.96
2023-04-12T16:51:17.038Z,11.95
2023-04-12T16:53:44.092Z,11.94
2023-04-12T16:56:11.007Z,11.93
2023-04-12T16:58:37.914Z,11.88
2023-04-12T17:01:05.061Z,11.83
2023-04-12T17:03:32.373Z,11.76
2023-04-12T17:05:59.480Z,11.77
2023-04-12T17:08:26.446Z,11.76
2023-04-12T17:10:54.335Z,11.76
2023-04-12T17:13:21.318Z,11.75
2023-04-12T17:15:48.445Z,11.74
2023-04-12T17:18:15.724Z,11.70
2023-04-12T17:20:42.956Z,11.66
2023-04-12T17:23:10.294Z,11.61
2023-04-12T17:25:37.862Z,11.55
2023-04-12T17:28:05.337Z,11.44
2023-04-12T17:30:32.666Z,11.36
2023-04-12T17:33:01.677Z,11.28
2023-04-12T17:35:29.051Z,11.21
2023-04-12T17:37:56.376Z,11.14
2023-04-12T17:40:23.409Z,11.07
2023-04-12T17:42:50.445Z,11.03
2023-04-12T17:45:19.162Z,10.95
2023-04-12T17:47:46.161Z,10.92
2023-04-12T17:50:13.936Z,10.85
2023-04-12T17:52:40.974Z,10.81
2023-04-12T17:55:12.764Z,10.77
2023-04-12T17:57:40.202Z,10.74
2023-04-12T18:00:14.179Z,10.70
2023-04-12T18:02:43.322Z,10.67
2023-04-12T18:05:11.151Z,10.62
2023-04-12T18:07:39.749Z,10.59
2023-04-12T18:10:09.486Z,10.56
2023-04-12T18:12:38.500Z,10.53
2023-04-12T18:15:08.203Z,10.48
2023-04-12T18:17:35.760Z,10.45
2023-04-12T18:20:04.821Z,10.42
2023-04-12T18:22:31.810Z,10.37
2023-04-12T18:24:58.809Z,10.33
2023-04-12T18:27:25.787Z,10.29
2023-04-12T18:29:52.835Z,10.25
2023-04-12T18:32:19.937Z,10.21
2023-04-12T18:34:46.870Z,10.18
2023-04-12T18:37:13.808Z,10.13
2023-04-12T18:39:42.654Z,10.07
2023-04-12T18:42:09.594Z,10.03
2023-04-12T18:44:37.690Z,10.00
2023-04-12T18:47:04.752Z,9.95
2023-04-12T18:49:31.682Z,9.91
2023-04-12T18:51:58.858Z,9.88
2023-04-12T18:54:27.759Z,9.84
2023-04-12T18:56:55.070Z,9.80
2023-04-12T18:59:22.156Z,9.76
2023-04-12T19:01:49.274Z,9.72
2023-04-12T19:04:16.717Z,9.69
2023-04-12T19:06:45.124Z,9.65
2023-04-12T19:09:12.140Z,9.63
2023-04-12T19:11:39.545Z,9.61
2023-04-12T19:14:07.533Z,9.57
2023-04-12T19:16:35.498Z,9.54
2023-04-12T19:19:02.823Z,9.52
2023-04-12T19:21:29.834Z,9.50
2023-04-12T19:23:57.104Z,9.49
2023-04-12T19:26:24.155Z,9.48
2023-04-12T19:28:55.209Z,9.48
2023-04-12T19:31:23.545Z,9.47
2023-04-12T19:33:50.978Z,9.46
2023-04-12T19:36:18.132Z,9.45
2023-04-12T19:38:47.737Z,9.44
2023-04-12T19:41:17.102Z,9.44
2023-04-12T19:43:44.110Z,9.40
2023-04-12T19:46:11.684Z,9.40
2023-04-12T19:48:38.747Z,9.37
2023-04-12T19:51:06.011Z,9.37
2023-04-12T19:53:33.909Z,9.35
2023-04-12T19:56:03.964Z,9.32
2023-04-12T19:58:32.042Z,9.32
2023-04-12T20:01:02.107Z,9.30
2023-04-12T20:03:29.965Z,9.30
2023-04-12T20:05:58.879Z,9.30
2023-04-12T20:08:29.371Z,9.28
2023-04-12T20:10:56.639Z,9.27
2023-04-12T20:13:23.666Z,9.26
2023-04-12T20:15:51.084Z,9.26
2023-04-12T20:18:18.046Z,9.25
2023-04-12T20:20:45.332Z,9.25
2023-04-12T20:23:13.819Z,9.24
2023-04-12T20:25:41.651Z,9.22
2023-04-12T20:28:09.374Z,9.21
2023-04-12T20:30:37.027Z,9.20
2023-04-12T20:33:04.582Z,9.16
2023-04-12T20:35:32.183Z,9.14
2023-04-12T20:38:01.704Z,9.13
2023-04-12T20:40:30.291Z,9.10
2023-04-12T20:42:57.412Z,9.10
2023-04-12T20:45:24.509Z,9.08
2023-04-12T20:47:51.872Z,9.08
2023-04-12T20:50:22.787Z,9.05
2023-04-12T20:52:52.111Z,9.04
2023-04-12T20:55:19.613Z,9.02
2023-04-12T20:57:46.665Z,9.00
2023-04-12T21:00:18.801Z,8.98
2023-04-12T21:02:46.404Z,8.96
2023-04-12T21:05:14.837Z,8.96
2023-04-12T21:07:41.767Z,8.93
2023-04-12T21:10:12.142Z,8.92
2023-04-12T21:12:41.104Z,8.90
2023-04-12T21:15:09.242Z,8.88
2023-04-12T21:17:37.011Z,8.87
2023-04-12T21:20:09.463Z,8.85
2023-04-12T21:22:36.461Z,8.82
2023-04-12T21:25:03.549Z,8.80
2023-04-12T21:27:30.497Z,8.79
2023-04-12T21:29:58.077Z,8.77
2023-04-12T21:32:25.139Z,8.75
2023-04-12T21:34:52.082Z,8.73
2023-04-12T21:37:21.987Z,8.71
2023-04-12T21:39:48.950Z,8.68
2023-04-12T21:42:16.212Z,8.66
2023-04-12T21:44:43.293Z,8.65
2023-04-12T21:47:10.214Z,8.63
2023-04-12T21:49:37.139Z,8.62
2023-04-12T21:52:04.387Z,8.59
2023-04-12T21:54:33.227Z,8.57
2023-04-12T21:57:00.203Z,8.55
2023-04-12T21:59:27.136Z,8.53
2023-04-12T22:01:54.227Z,8.50
2023-04-12T22:04:21.347Z,8.49
2023-04-12T22:06:50.692Z,8.48
2023-04-12T22:09:18.660Z,8.46
2023-04-12T22:11:46.486Z,8.45
2023-04-12T22:14:13.393Z,8.43
2023-04-12T22:16:40.349Z,8.41
2023-04-12T22:19:07.428Z,8.39
2023-04-12T22:21:34.492Z,8.38
2023-04-12T22:24:01.772Z,8.33
2023-04-12T22:26:28.937Z,8.33
2023-04-12T22:28:55.899Z,8.29
2023-04-12T22:31:23.158Z,8.28
2023-04-12T22:33:54.743Z,8.25
2023-04-12T22:36:22.292Z,8.20
2023-04-12T22:38:49.175Z,8.16
2023-04-12T22:41:17.081Z,8.12
2023-04-12T22:43:47.619Z,8.10
2023-04-12T22:46:16.372Z,8.05
2023-04-12T22:48:47.871Z,8.00
2023-04-12T22:51:15.338Z,7.96
2023-04-12T22:53:43.271Z,7.92
2023-04-12T22:56:11.083Z,7.87
2023-04-12T22:58:40.013Z,7.83
2023-04-12T23:01:07.334Z,7.77
2023-04-12T23:03:34.453Z,7.72
2023-04-12T23:06:01.888Z,7.68
2023-04-12T23:08:29.095Z,7.64
2023-04-12T23:11:02.821Z,7.60
2023-04-12T23:13:34.786Z,7.57
2023-04-12T23:16:07.513Z,7.52
2023-04-12T23:18:34.527Z,7.49
2023-04-12T23:21:01.737Z,7.46
2023-04-12T23:23:28.819Z,7.43
2023-04-12T23:25:55.825Z,7.39
2023-04-12T23:28:25.742Z,7.35
2023-04-12T23:30:52.684Z,7.34
2023-04-12T23:33:21.374Z,7.30
2023-04-12T23:35:52.104Z,7.27
2023-04-12T23:38:32.142Z,7.23
2023-04-12T23:41:04.082Z,7.19
2023-04-12T23:43:32.593Z,7.16
2023-04-12T23:46:00.321Z,7.13
2023-04-12T23:48:27.955Z,7.09
2023-04-12T23:50:54.892Z,7.07
2023-04-12T23:53:21.981Z,7.05
2023-04-12T23:55:51.799Z,7.03
2023-04-12T23:58:19.382Z,7.01
